الصفحة الرئيسية
METAR-TAF:

METAR-TAF

مطار :

Tarawa, كيريباس

دائرة عرض: 01-21N, خط طول: 172-55E, ارتفاع: 2 متر

مراقبة الطقس الحالي

تاريخ ووقت الإصدار 31 دقيقة قبل الساعة 17:00UTC
ريح 12 عقدة من الشرق
درجة الحرارة 26°درجة مئوية
الرطوبة 84%
ضغط 1005 hPa
الرؤية 10 كم أو أكثر
غيوم قليلة على ارتفاع 2000 قدم

METAR: NGTA 151700Z 09012KT 9999 FEW020 26/23 Q1005

زمن: 07:31 (17:31 UTC)

توقعات

تاريخ ووقت الإصدار 12ساعات و 5 دقيقة قبل الساعة 05:26UTC
التوقعات صالحة من15 الساعة 06 UTC إلى 16 الساعة 06 UTC
ريح 15 عقدة من الشرق
الرؤية 10 كم أو أكثر
غيوم متفرقة على ارتفاع 1900 قدم
مؤقت
من 15 الساعة 06 UTC إلى 15 الساعة 24 UTC
ريح 15 عقدة من الشرق تتزايد حتى 25 عقدة
نظرية الاحتمالات 40% :
مؤقت
من 16 الساعة 00 UTC إلى 16 الساعة 06 UTC
ريح 15 عقدة من الشرق تتزايد حتى 25 عقدة

TAF: NGTA 150526Z 1506/1606 09015KT 9999 SCT019 TEMPO 1506/1524 09015G25KT PROB40 TEMPO 1600/1606 10015G25KT

أرصاد الطقس والتوقعات من أكثر من 4000 مطار (تقارير الطقس للمطار METAR والتنبؤ بالطقس بالمطارTAF).

المحطات المتاحة هي النقط الصفراء والحمراء على الخريطة.

حرك المؤشر فوق النقطة لمعرفة اسم المحطة.

ثم انقر لمعرفة أرصاد وتوقعات الطقس.

لتغيير الخارطة: اضغط على الأزرار الخضراء مع رمز الصليب الأسود للتكبير. على الزر الأخضر مع شرطة للتصغير، أو على الأسهم الخضراء للخرائط المجاورة.


METAR-TAF: